Time;durP1;ratioP1;P1;durP2;ratioP2;P2;SDS_P1;SDS_P2;PMS_P1;PMS_P2;Temp;Humidity;BMP_temperature;BMP_pressure;BME280_temperature;BME280_humidity;BME280_pressure;Samples;Min_cycle;Max_cycle;Signal;HPM_P1;HPM_P2
2023/07/08 00:01:11;;;;;;;5.63;2.28;;;;;;;21.72;61.05;101387.50;5007409;28;20045;-73
2023/07/08 00:03:36;;;;;;;7.93;2.70;;;;;;;21.70;61.56;101381.66;5003776;28;20046;-74
2023/07/08 00:06:02;;;;;;;3.25;1.98;;;;;;;21.66;61.89;101374.34;5003699;28;20037;-74
2023/07/08 00:08:27;;;;;;;6.45;2.92;;;;;;;21.52;63.10;101363.91;5002739;28;20033;-73
2023/07/08 00:10:53;;;;;;;4.57;2.38;;;;;;;21.39;63.37;101358.72;5003035;28;20037;-71
2023/07/08 00:13:18;;;;;;;7.55;2.63;;;;;;;21.30;63.96;101360.00;5011584;28;20570;-74
2023/07/08 00:15:44;;;;;;;4.35;2.40;;;;;;;21.19;64.19;101361.47;5004186;28;21256;-73
2023/07/08 00:18:15;;;;;;;3.05;2.00;;;;;;;21.10;64.13;101354.88;5001312;28;20073;-74
2023/07/08 00:20:45;;;;;;;8.05;2.00;;;;;;;21.00;64.96;101357.94;5001907;28;20045;-74
2023/07/08 00:23:10;;;;;;;3.67;2.42;;;;;;;20.95;64.97;101360.44;5000861;28;20037;-72
2023/07/08 00:25:36;;;;;;;5.90;2.00;;;;;;;20.95;64.59;101353.31;5002079;28;21917;-73
2023/07/08 00:28:01;;;;;;;3.25;2.28;;;;;;;21.01;64.20;101356.94;5006711;28;20042;-73
2023/07/08 00:30:30;;;;;;;5.90;2.50;;;;;;;21.06;63.99;101359.75;4990520;28;20137;-70
2023/07/08 00:32:57;;;;;;;3.45;2.40;;;;;;;21.10;63.88;101358.31;5001557;28;20087;-70
2023/07/08 00:35:30;;;;;;;3.80;2.17;;;;;;;21.13;63.93;101357.06;5003700;28;20049;-71
2023/07/08 00:38:02;;;;;;;4.60;2.20;;;;;;;21.15;63.82;101355.84;4997963;28;20627;-72
2023/07/08 00:40:32;;;;;;;3.70;2.10;;;;;;;21.16;63.92;101349.53;4984925;28;20046;-73
2023/07/08 00:43:05;;;;;;;4.22;2.67;;;;;;;21.14;64.08;101351.59;5003345;28;20038;-75
2023/07/08 00:45:40;;;;;;;4.30;2.45;;;;;;;21.10;64.61;101349.59;4998322;28;20073;-73
2023/07/08 00:48:28;;;;;;;3.92;2.35;;;;;;;21.02;65.39;101352.47;4978099;28;20034;-73
2023/07/08 00:50:54;;;;;;;4.70;2.30;;;;;;;20.84;66.69;101353.19;4999451;28;20091;-72
2023/07/08 00:53:22;;;;;;;4.03;2.38;;;;;;;20.71;67.33;101349.59;5003463;28;20042;-74
2023/07/08 00:55:48;;;;;;;4.10;2.17;;;;;;;20.67;67.94;101348.41;5003920;28;20034;-75
2023/07/08 00:58:16;;;;;;;3.42;2.40;;;;;;;20.69;67.56;101348.19;4986307;28;20092;-72
2023/07/08 01:00:42;;;;;;;4.30;2.50;;;;;;;20.72;67.54;101350.38;5003317;28;20493;-74
2023/07/08 01:03:07;;;;;;;5.32;2.28;;;;;;;20.74;67.77;101345.75;4988511;28;20045;-73
2023/07/08 01:05:34;;;;;;;3.40;2.17;;;;;;;20.78;67.25;101345.09;5001974;28;20540;-75
2023/07/08 01:08:04;;;;;;;3.45;2.10;;;;;;;20.83;67.02;101348.94;5003917;28;20034;-71
2023/07/08 01:10:38;;;;;;;5.50;2.95;;;;;;;20.86;66.81;101348.50;5001836;28;20049;-74
2023/07/08 01:13:07;;;;;;;4.55;2.38;;;;;;;20.87;66.26;101353.59;5003785;28;20065;-73
2023/07/08 01:15:39;;;;;;;3.60;2.03;;;;;;;20.87;65.30;101347.47;5005505;28;20088;-74
2023/07/08 01:18:05;;;;;;;4.85;2.47;;;;;;;20.86;64.85;101345.88;5005064;28;21333;-74
2023/07/08 01:20:30;;;;;;;3.90;2.33;;;;;;;20.85;64.89;101345.06;4995634;28;20492;-74
2023/07/08 01:22:56;;;;;;;2.90;2.03;;;;;;;20.84;65.32;101337.38;5008385;28;20029;-74
2023/07/08 01:25:21;;;;;;;3.50;2.20;;;;;;;20.82;64.92;101339.41;5005870;28;20523;-75
2023/07/08 01:27:51;;;;;;;7.65;2.03;;;;;;;20.80;65.07;101335.16;5006121;28;20116;-71
2023/07/08 01:30:17;;;;;;;5.20;2.60;;;;;;;20.80;64.92;101337.78;5008672;28;20072;-74
2023/07/08 01:32:49;;;;;;;5.18;2.05;;;;;;;20.80;65.08;101331.72;5007305;28;20022;-74
2023/07/08 01:35:16;;;;;;;4.55;2.35;;;;;;;20.78;66.45;101331.13;5007404;28;20053;-74
2023/07/08 01:37:49;;;;;;;4.15;2.50;;;;;;;20.76;67.85;101328.69;5008770;28;20060;-72
2023/07/08 01:40:26;;;;;;;4.90;2.53;;;;;;;20.73;68.95;101326.47;5007892;28;20504;-74
2023/07/08 01:42:52;;;;;;;3.55;2.17;;;;;;;20.72;70.31;101316.97;5009979;28;20057;-74
2023/07/08 01:45:20;;;;;;;3.53;2.42;;;;;;;20.72;71.01;101324.88;4991192;28;20287;-74
2023/07/08 01:47:51;;;;;;;3.72;2.03;;;;;;;20.69;71.73;101329.75;5008272;28;20034;-74
2023/07/08 01:50:18;;;;;;;4.13;2.50;;;;;;;20.66;72.03;101330.97;5004299;28;20042;-74
2023/07/08 01:52:44;;;;;;;4.90;2.63;;;;;;;20.60;72.50;101323.91;4994946;28;20024;-74
2023/07/08 01:55:09;;;;;;;4.28;2.60;;;;;;;20.57;72.67;101324.31;5005354;28;20030;-73
2023/07/08 01:57:35;;;;;;;3.67;2.28;;;;;;;20.55;73.06;101319.25;5008102;28;20033;-71
2023/07/08 02:00:00;;;;;;;5.07;2.85;;;;;;;20.57;72.69;101316.41;5006348;28;20555;-74
2023/07/08 02:02:26;;;;;;;3.55;2.70;;;;;;;20.54;73.26;101307.06;5007689;28;20034;-74
2023/07/08 02:04:51;;;;;;;4.45;2.65;;;;;;;20.52;74.44;101309.13;5006246;28;20434;-73
2023/07/08 02:07:17;;;;;;;5.20;2.97;;;;;;;20.51;74.79;101307.53;5006966;28;20040;-74
2023/07/08 02:09:42;;;;;;;4.90;2.63;;;;;;;20.49;75.36;101304.25;5003968;28;20045;-73
2023/07/08 02:12:08;;;;;;;4.25;2.55;;;;;;;20.49;76.09;101300.81;5005249;28;20324;-74
2023/07/08 02:14:34;;;;;;;7.85;2.70;;;;;;;20.45;76.67;101300.44;5002978;28;20125;-73
2023/07/08 02:16:59;;;;;;;4.20;2.70;;;;;;;20.43;76.85;101299.84;5004646;28;20063;-74
2023/07/08 02:19:24;;;;;;;8.20;2.67;;;;;;;20.41;76.72;101300.03;5005359;28;20053;-74
2023/07/08 02:21:51;;;;;;;4.60;2.20;;;;;;;20.41;76.92;101310.56;4987815;28;20034;-71
2023/07/08 02:24:17;;;;;;;3.95;2.67;;;;;;;20.37;77.81;101298.84;5004937;28;20050;-72
2023/07/08 02:26:43;;;;;;;4.65;2.83;;;;;;;20.30;79.06;101292.78;4994661;28;20032;-74
2023/07/08 02:29:09;;;;;;;4.35;2.40;;;;;;;20.19;80.29;101299.53;5003684;28;20423;-74
2023/07/08 02:31:35;;;;;;;4.10;2.60;;;;;;;20.12;80.81;101290.84;5023137;28;20033;-74
2023/07/08 02:34:02;;;;;;;6.45;2.30;;;;;;;20.09;81.29;101290.44;5007589;28;20666;-73
2023/07/08 02:36:27;;;;;;;5.05;2.30;;;;;;;20.02;81.69;101290.44;5006504;28;20045;-74
2023/07/08 02:38:52;;;;;;;4.32;2.63;;;;;;;19.96;82.23;101286.03;4986198;28;20046;-74
2023/07/08 02:41:18;;;;;;;5.13;2.63;;;;;;;19.93;82.19;101289.88;5006933;28;20072;-74
2023/07/08 02:43:44;;;;;;;4.78;2.15;;;;;;;19.91;81.97;101291.09;5006505;28;20029;-74
2023/07/08 02:46:09;;;;;;;3.97;2.42;;;;;;;19.93;81.64;101286.44;5008852;28;20536;-74
2023/07/08 02:48:35;;;;;;;5.95;3.08;;;;;;;19.97;80.84;101298.19;5008860;28;20034;-71
2023/07/08 02:51:02;;;;;;;7.05;2.60;;;;;;;19.97;80.87;101287.66;5005169;28;20083;-74
2023/07/08 02:53:28;;;;;;;4.15;2.20;;;;;;;19.98;80.56;101302.41;5003219;28;20427;-73
2023/07/08 02:55:53;;;;;;;5.53;2.65;;;;;;;20.01;80.52;101299.38;5005486;28;20025;-74
2023/07/08 02:58:19;;;;;;;4.65;2.47;;;;;;;20.00;79.99;101309.09;5005264;28;20030;-72
2023/07/08 03:00:44;;;;;;;5.80;2.90;;;;;;;19.98;80.31;101300.56;5003451;28;20060;-73
2023/07/08 03:03:10;;;;;;;5.70;2.78;;;;;;;19.96;80.24;101301.81;5003724;28;20056;-74
2023/07/08 03:05:36;;;;;;;5.03;2.65;;;;;;;19.90;80.66;101300.00;4989241;28;20038;-72
2023/07/08 03:08:01;;;;;;;3.13;2.28;;;;;;;19.88;79.94;101296.78;5006692;28;20615;-73
2023/07/08 03:10:27;;;;;;;6.07;3.10;;;;;;;19.88;79.38;101294.16;5004193;28;20129;-74
2023/07/08 03:12:52;;;;;;;4.20;2.60;;;;;;;19.87;79.12;101297.78;4990133;28;20033;-74
2023/07/08 03:15:18;;;;;;;6.68;2.67;;;;;;;19.85;78.78;101295.34;5005719;28;20037;-74
2023/07/08 03:17:43;;;;;;;3.95;2.58;;;;;;;19.82;78.94;101299.22;4994642;28;20421;-72
2023/07/08 03:20:10;;;;;;;7.00;2.58;;;;;;;19.80;78.75;101298.59;5007660;28;20042;-74
2023/07/08 03:22:36;;;;;;;4.03;2.50;;;;;;;19.79;78.22;101304.88;5007610;28;20045;-74
2023/07/08 03:25:03;;;;;;;4.97;2.47;;;;;;;19.79;77.54;101304.06;4987979;28;20451;-77
2023/07/08 03:27:29;;;;;;;4.53;2.90;;;;;;;19.74;76.60;101306.50;4989178;28;20075;-74
2023/07/08 03:29:55;;;;;;;5.95;2.45;;;;;;;19.66;77.48;101296.97;5006463;28;20038;-73
2023/07/08 03:32:21;;;;;;;4.15;2.60;;;;;;;19.54;78.74;101294.16;4998041;28;20034;-74
2023/07/08 03:34:46;;;;;;;5.35;2.42;;;;;;;19.43;79.29;101292.13;5006127;28;20061;-73
2023/07/08 03:37:12;;;;;;;7.65;2.65;;;;;;;19.36;79.37;101288.69;5002564;28;20026;-73
2023/07/08 03:39:38;;;;;;;6.88;2.63;;;;;;;19.34;78.88;101283.63;5001211;28;20060;-73
2023/07/08 03:42:04;;;;;;;3.78;2.50;;;;;;;19.34;77.81;101290.72;4987052;28;20089;-73
2023/07/08 03:44:30;;;;;;;5.78;2.67;;;;;;;19.35;76.98;101294.97;4988924;28;20133;-71
2023/07/08 03:46:56;;;;;;;4.30;2.63;;;;;;;19.35;76.57;101294.97;4989842;28;20040;-73
2023/07/08 03:49:23;;;;;;;6.63;2.85;;;;;;;19.36;76.06;101297.38;4988210;28;20113;-74
2023/07/08 03:51:54;;;;;;;4.82;2.75;;;;;;;19.39;75.62;101301.44;5002234;28;20128;-74
2023/07/08 03:54:22;;;;;;;4.53;2.70;;;;;;;19.37;75.71;101291.13;5007006;28;20045;-73
2023/07/08 03:56:48;;;;;;;5.22;2.42;;;;;;;19.38;75.77;101294.56;5005474;28;20037;-73
2023/07/08 03:59:13;;;;;;;4.32;2.83;;;;;;;19.35;76.14;101301.03;5006430;28;20045;-74
2023/07/08 04:01:40;;;;;;;7.80;2.83;;;;;;;19.32;76.53;101303.25;5006567;28;20452;-73
2023/07/08 04:04:12;;;;;;;3.83;2.92;;;;;;;19.31;76.39;101299.81;5019639;28;20505;-73
2023/07/08 04:06:37;;;;;;;6.15;2.85;;;;;;;19.21;76.72;101307.28;5002368;28;20053;-74
2023/07/08 04:09:03;;;;;;;6.50;3.15;;;;;;;19.05;77.66;101306.66;4990827;28;20041;-73
2023/07/08 04:11:28;;;;;;;4.00;2.88;;;;;;;18.96;77.45;101309.69;5005711;28;20045;-72
2023/07/08 04:13:53;;;;;;;9.90;2.92;;;;;;;18.91;78.09;101306.84;4999303;28;20053;-71
2023/07/08 04:16:23;;;;;;;6.00;2.88;;;;;;;18.86;78.47;101313.50;5017988;28;20041;-74
2023/07/08 04:18:50;;;;;;;8.57;2.80;;;;;;;18.80;78.82;101309.03;4998903;28;20053;-73
2023/07/08 04:21:17;;;;;;;6.68;3.00;;;;;;;18.79;78.98;101302.13;5008208;28;20030;-73
2023/07/08 04:23:43;;;;;;;6.65;2.70;;;;;;;18.77;79.03;101301.50;5004465;28;20053;-73
2023/07/08 04:26:09;;;;;;;4.47;2.72;;;;;;;18.77;79.50;101309.41;5000671;28;20031;-73
2023/07/08 04:28:34;;;;;;;8.77;2.50;;;;;;;18.71;80.08;101302.31;4990704;28;20405;-74
2023/07/08 04:30:59;;;;;;;6.22;3.17;;;;;;;18.67;80.25;101303.72;5008615;28;20030;-74
2023/07/08 04:33:25;;;;;;;4.63;2.47;;;;;;;18.64;80.45;101301.47;5006930;28;20288;-74
2023/07/08 04:35:50;;;;;;;5.30;2.97;;;;;;;18.67;80.45;101317.66;5003196;28;20643;-73
2023/07/08 04:38:19;;;;;;;7.60;2.75;;;;;;;18.74;80.26;101319.50;4968408;28;1062151;-74
2023/07/08 04:40:44;;;;;;;6.80;2.67;;;;;;;18.78;80.03;101321.53;5009090;28;20038;-73
2023/07/08 04:43:13;;;;;;;5.82;2.50;;;;;;;18.82;80.20;101311.47;5006996;28;20049;-74
2023/07/08 04:45:44;;;;;;;5.45;2.83;;;;;;;18.83;80.32;101308.63;5008983;28;20104;-71
2023/07/08 04:48:14;;;;;;;5.30;2.97;;;;;;;18.85;80.66;101303.19;5006081;28;20192;-72
2023/07/08 04:50:44;;;;;;;13.93;4.05;;;;;;;18.88;80.48;101308.06;5004702;28;20046;-74
2023/07/08 04:53:10;;;;;;;7.55;3.35;;;;;;;18.94;80.29;101298.56;5007614;28;20038;-73
2023/07/08 04:55:50;;;;;;;6.28;2.92;;;;;;;19.04;79.73;101306.84;5003383;28;20030;-74
2023/07/08 04:58:15;;;;;;;9.18;2.90;;;;;;;19.14;78.69;101311.75;5001988;28;20568;-73
2023/07/08 05:00:40;;;;;;;4.50;2.53;;;;;;;19.17;78.02;101304.25;5006307;28;20128;-72
2023/07/08 05:03:06;;;;;;;6.35;3.53;;;;;;;19.22;77.41;101319.44;5006553;28;20033;-74
2023/07/08 05:05:31;;;;;;;6.82;2.80;;;;;;;19.28;76.80;101312.56;5008308;28;20091;-74
2023/07/08 05:07:57;;;;;;;7.18;3.20;;;;;;;19.36;76.86;101313.16;4989340;28;20057;-71
2023/07/08 05:10:22;;;;;;;7.03;3.15;;;;;;;19.46;76.72;101312.78;5006506;28;20053;-73
2023/07/08 05:12:48;;;;;;;6.30;3.08;;;;;;;19.56;76.85;101307.09;4991074;28;20440;-74
2023/07/08 05:15:15;;;;;;;5.95;3.38;;;;;;;19.70;76.78;101315.78;5003763;28;20528;-73
2023/07/08 05:17:40;;;;;;;7.57;3.63;;;;;;;19.83;76.45;101316.63;4988382;28;20041;-73
2023/07/08 05:20:09;;;;;;;7.35;3.40;;;;;;;19.92;74.70;101313.78;5006724;28;20037;-73
2023/07/08 05:22:35;;;;;;;6.97;3.60;;;;;;;20.02;73.48;101314.97;5005953;28;20037;-73
2023/07/08 05:25:01;;;;;;;6.03;3.35;;;;;;;20.11;72.64;101317.38;5022414;28;20057;-73
2023/07/08 05:27:26;;;;;;;7.63;3.88;;;;;;;20.26;68.75;101311.84;5006541;28;20037;-74
2023/07/08 05:29:53;;;;;;;7.25;4.10;;;;;;;20.28;68.40;101310.63;5006467;28;20042;-74
2023/07/08 05:32:19;;;;;;;11.80;4.43;;;;;;;20.28;67.04;101312.47;5007203;28;20041;-71
2023/07/08 05:34:45;;;;;;;10.60;3.95;;;;;;;20.46;66.15;101311.78;5018819;28;20512;-74
2023/07/08 05:37:12;;;;;;;8.63;3.55;;;;;;;20.70;62.51;101307.63;5005813;28;20033;-74
2023/07/08 05:39:38;;;;;;;6.65;3.95;;;;;;;20.80;62.56;101316.72;5002844;28;20048;-75
2023/07/08 05:42:03;;;;;;;7.88;4.15;;;;;;;21.04;60.23;101317.00;5008337;28;20400;-74
2023/07/08 05:44:29;;;;;;;8.25;3.80;;;;;;;21.13;59.92;101306.97;5002878;28;20051;-75
2023/07/08 05:46:54;;;;;;;6.80;3.85;;;;;;;21.26;58.42;101306.06;5006922;28;20038;-73
2023/07/08 05:49:20;;;;;;;6.15;3.60;;;;;;;21.34;58.97;101308.44;4992529;28;20049;-75
2023/07/08 05:51:46;;;;;;;8.00;4.78;;;;;;;21.53;56.49;101301.41;5005764;28;20041;-74
2023/07/08 05:54:11;;;;;;;8.43;4.07;;;;;;;21.68;58.17;101296.63;5004748;28;20504;-74
2023/07/08 05:56:37;;;;;;;7.88;3.80;;;;;;;21.81;57.69;101298.28;5006857;28;20503;-75
2023/07/08 05:59:03;;;;;;;7.50;3.67;;;;;;;21.97;56.92;101300.38;5005409;28;20054;-75
2023/07/08 06:01:29;;;;;;;10.07;4.13;;;;;;;22.16;55.78;101305.66;5009692;28;20508;-73
2023/07/08 06:03:57;;;;;;;9.90;3.72;;;;;;;22.34;54.91;101300.38;5009058;28;20065;-74
2023/07/08 06:06:23;;;;;;;6.45;3.55;;;;;;;22.53;55.19;101295.09;5003756;28;20030;-74
2023/07/08 06:08:49;;;;;;;10.57;4.57;;;;;;;22.77;53.78;101305.72;5008757;28;20557;-73
2023/07/08 06:11:14;;;;;;;5.95;3.55;;;;;;;22.99;53.38;101306.81;4995648;28;20033;-74
2023/07/08 06:13:40;;;;;;;8.07;3.55;;;;;;;23.18;52.53;101306.78;5010106;28;20045;-74
2023/07/08 06:16:05;;;;;;;10.52;4.07;;;;;;;23.21;50.77;101311.63;5025047;28;21232;-72
2023/07/08 06:18:30;;;;;;;6.47;3.72;;;;;;;23.28;49.76;101318.41;5012885;28;20045;-73
2023/07/08 06:20:57;;;;;;;8.20;3.92;;;;;;;23.36;51.10;101313.81;4991160;28;20026;-75
2023/07/08 06:23:23;;;;;;;6.00;3.72;;;;;;;23.63;50.49;101314.97;5008393;28;20069;-75
2023/07/08 06:25:49;;;;;;;8.35;4.13;;;;;;;23.81;49.63;101315.91;5009332;28;20065;-75
2023/07/08 06:28:15;;;;;;;7.70;4.15;;;;;;;23.99;49.03;101309.69;5005768;28;20041;-76
2023/07/08 06:30:40;;;;;;;7.15;4.07;;;;;;;24.20;47.06;101308.25;5009383;28;20053;-76
2023/07/08 06:33:06;;;;;;;6.03;3.90;;;;;;;24.36;46.18;101304.06;5009372;28;20033;-74
2023/07/08 06:35:31;;;;;;;5.88;4.13;;;;;;;24.57;46.48;101292.03;5010118;28;20081;-75
2023/07/08 06:37:57;;;;;;;8.57;4.13;;;;;;;24.51;46.05;101291.09;5008168;28;20029;-75
2023/07/08 06:40:22;;;;;;;7.40;4.05;;;;;;;24.82;46.43;101295.09;5007881;28;20045;-75
2023/07/08 06:42:48;;;;;;;7.18;3.58;;;;;;;24.98;45.07;101301.50;5006819;28;20033;-72
2023/07/08 06:45:25;;;;;;;10.27;5.65;;;;;;;25.20;43.71;101295.44;4990905;28;20037;-75
2023/07/08 06:47:50;;;;;;;7.63;4.32;;;;;;;25.45;44.52;101292.44;5004030;28;20034;-76
2023/07/08 06:50:16;;;;;;;6.00;3.92;;;;;;;25.74;43.76;101298.38;5011839;28;20501;-75
2023/07/08 06:52:41;;;;;;;6.18;4.43;;;;;;;26.06;43.67;101295.09;5007600;28;20045;-76
2023/07/08 06:55:09;;;;;;;7.53;4.60;;;;;;;26.21;42.06;101289.16;5008184;28;20034;-75
2023/07/08 06:57:35;;;;;;;8.32;4.90;;;;;;;26.21;41.38;101289.16;5005168;28;20044;-72
2023/07/08 07:00:01;;;;;;;7.03;3.88;;;;;;;26.54;41.16;101287.34;5007357;28;20073;-74
2023/07/08 07:02:27;;;;;;;8.40;4.60;;;;;;;26.88;40.71;101292.47;5009463;28;20412;-74
2023/07/08 07:04:52;;;;;;;6.88;4.63;;;;;;;27.06;40.24;101292.09;5008845;28;20524;-74
2023/07/08 07:07:18;;;;;;;10.00;4.20;;;;;;;27.15;38.82;101284.47;5010885;28;20034;-75
2023/07/08 07:09:43;;;;;;;12.70;4.10;;;;;;;27.42;38.85;101281.72;4994878;28;20160;-76
2023/07/08 07:12:09;;;;;;;11.23;4.22;;;;;;;27.68;38.29;101279.22;5006818;28;20041;-76
2023/07/08 07:14:35;;;;;;;7.65;4.28;;;;;;;27.83;38.54;101286.47;5005486;28;20053;-75
2023/07/08 07:17:00;;;;;;;9.25;4.20;;;;;;;27.98;38.38;101288.44;5010769;28;20065;-77
2023/07/08 07:19:25;;;;;;;6.38;4.10;;;;;;;28.20;38.49;101289.03;5008139;28;20045;-74
2023/07/08 07:21:51;;;;;;;8.00;4.53;;;;;;;28.20;36.02;101285.53;5009174;28;20036;-77
2023/07/08 07:24:17;;;;;;;8.57;4.00;;;;;;;28.48;37.08;101286.94;5005696;28;20056;-75
2023/07/08 07:26:42;;;;;;;7.18;5.10;;;;;;;28.58;35.93;101287.00;5010978;28;20108;-74
2023/07/08 07:29:08;;;;;;;9.50;5.00;;;;;;;28.76;35.87;101288.31;5007070;28;20037;-74
2023/07/08 07:31:33;;;;;;;8.30;4.72;;;;;;;29.03;35.37;101285.41;5005301;28;20089;-76
2023/07/08 07:34:00;;;;;;;7.45;4.22;;;;;;;28.98;35.41;101288.06;4989677;28;20042;-75
2023/07/08 07:36:26;;;;;;;6.78;4.47;;;;;;;29.11;34.24;101284.84;5009955;28;20088;-75
2023/07/08 07:38:52;;;;;;;9.20;4.85;;;;;;;28.95;35.03;101295.81;5004892;28;20404;-74
2023/07/08 07:41:17;;;;;;;9.02;5.00;;;;;;;28.90;35.78;101297.41;5008333;28;20075;-77
2023/07/08 07:43:43;;;;;;;10.13;4.72;;;;;;;28.98;36.22;101289.94;5005106;28;20096;-75
2023/07/08 07:46:10;;;;;;;9.05;4.53;;;;;;;29.30;34.86;101292.34;5004218;28;20397;-77
2023/07/08 07:48:36;;;;;;;8.00;3.85;;;;;;;29.95;34.25;101286.25;5007801;28;20099;-77
2023/07/08 07:51:02;;;;;;;7.90;4.30;;;;;;;29.92;33.83;101287.63;5012373;28;20045;-76
2023/07/08 07:53:27;;;;;;;7.75;4.80;;;;;;;29.56;33.80;101293.06;5009398;28;20036;-77
2023/07/08 07:56:00;;;;;;;11.95;5.40;;;;;;;29.79;34.46;101301.56;5006377;28;20038;-74
2023/07/08 07:58:26;;;;;;;6.20;4.00;;;;;;;29.44;34.44;101290.72;5005312;28;20448;-73
2023/07/08 08:00:52;;;;;;;7.65;4.72;;;;;;;29.40;34.63;101286.94;4997068;28;20022;-76
2023/07/08 08:03:17;;;;;;;6.88;4.47;;;;;;;30.02;34.55;101281.41;5002930;28;20022;-75
2023/07/08 08:05:42;;;;;;;9.55;4.45;;;;;;;30.22;33.49;101293.88;5005701;28;20026;-77
2023/07/08 08:08:08;;;;;;;13.13;5.15;;;;;;;30.13;33.30;101292.88;5004945;28;20033;-80
2023/07/08 08:10:34;;;;;;;10.38;4.35;;;;;;;30.38;32.12;101300.75;5003657;28;20057;-75
2023/07/08 08:13:00;;;;;;;8.20;4.63;;;;;;;30.61;32.61;101293.91;5004753;28;20033;-74
2023/07/08 08:15:25;;;;;;;9.65;4.15;;;;;;;31.15;32.49;101297.50;4997325;28;20637;-76
2023/07/08 08:17:51;;;;;;;9.85;5.72;;;;;;;31.30;31.25;101293.06;4979485;28;20037;-77
2023/07/08 08:20:19;;;;;;;7.80;4.38;;;;;;;30.89;31.45;101298.78;4998078;28;20042;-78
2023/07/08 08:22:45;;;;;;;11.13;4.53;;;;;;;30.85;31.47;101298.53;4998671;28;20042;-75
2023/07/08 08:25:11;;;;;;;7.53;4.60;;;;;;;30.98;31.28;101291.75;4996553;28;20041;-76
2023/07/08 08:27:36;;;;;;;8.10;4.60;;;;;;;31.38;31.10;101297.78;4997407;28;20068;-76
2023/07/08 08:30:04;;;;;;;7.03;5.00;;;;;;;31.44;31.02;101294.00;4998166;28;20073;-76
2023/07/08 08:32:29;;;;;;;6.22;4.40;;;;;;;32.11;30.59;101295.91;4998970;28;20053;-75
2023/07/08 08:34:55;;;;;;;10.45;4.88;;;;;;;32.35;30.73;101295.84;4994845;28;21244;-75
2023/07/08 08:37:20;;;;;;;7.78;5.07;;;;;;;32.49;29.67;101296.66;4998633;28;20046;-78
2023/07/08 08:39:46;;;;;;;7.32;4.82;;;;;;;32.30;30.29;101302.06;5000108;28;20049;-76
2023/07/08 08:42:25;;;;;;;15.20;5.45;;;;;;;32.65;29.76;101294.59;4998418;28;20056;-76
2023/07/08 08:44:51;;;;;;;11.90;5.35;;;;;;;32.52;29.66;101306.03;5000374;28;20042;-76
2023/07/08 08:47:37;;;;;;;9.07;4.60;;;;;;;32.46;29.74;101305.31;5007347;28;20034;-75
2023/07/08 08:50:24;;;;;;;12.27;5.28;;;;;;;32.31;30.45;101311.72;4983736;28;20053;-76
2023/07/08 08:52:51;;;;;;;15.25;5.63;;;;;;;32.62;30.12;101305.91;5021028;28;20037;-77
2023/07/08 08:55:17;;;;;;;10.05;4.95;;;;;;;32.59;29.55;101318.03;4992792;28;20666;-76
2023/07/08 08:57:57;;;;;;;8.40;5.15;;;;;;;32.28;29.21;101322.22;5002828;28;20069;-76
2023/07/08 09:00:45;;;;;;;12.85;4.75;;;;;;;32.31;28.93;101309.03;5001064;28;20061;-73
2023/07/08 09:03:17;;;;;;;13.07;4.68;;;;;;;32.72;29.48;101310.28;4997535;28;20108;-77
2023/07/08 09:05:45;;;;;;;8.90;4.85;;;;;;;32.74;29.18;101305.47;4998864;28;20493;-74
2023/07/08 09:08:31;;;;;;;12.18;5.80;;;;;;;33.21;29.12;101316.22;4997243;28;20034;-76
2023/07/08 09:11:10;;;;;;;8.30;5.05;;;;;;;33.42;29.81;101303.19;4994895;28;20042;-76
2023/07/08 09:13:37;;;;;;;10.77;5.40;;;;;;;33.50;29.75;101300.59;4996183;28;20564;-74
2023/07/08 09:16:26;;;;;;;9.80;5.03;;;;;;;33.85;28.79;101295.63;5000673;28;20120;-80
2023/07/08 09:19:04;;;;;;;8.57;5.07;;;;;;;33.91;27.88;101299.00;5000187;28;20046;-77
2023/07/08 09:21:46;;;;;;;9.10;4.95;;;;;;;33.97;27.82;101297.78;5000111;28;20146;-77
2023/07/08 09:24:18;;;;;;;;;;;;;;;33.97;27.41;101299.69;4985434;28;20042;-75
2023/07/08 09:26:46;;;;;;;10.63;5.22;;;;;;;33.53;28.33;101300.00;5021647;28;19925;-77
2023/07/08 09:29:12;;;;;;;10.55;4.55;;;;;;;33.62;28.08;101294.72;5005244;28;20045;-77
2023/07/08 09:31:39;;;;;;;10.27;4.60;;;;;;;33.90;29.13;101300.09;5009939;28;20042;-76
2023/07/08 09:34:17;;;;;;;10.40;4.95;;;;;;;33.86;28.35;101297.22;4989702;28;20042;-75
2023/07/08 09:36:47;;;;;;;12.43;5.20;;;;;;;33.90;28.04;101305.47;5011073;28;20510;-77
2023/07/08 09:39:17;;;;;;;8.80;4.97;;;;;;;33.83;27.88;101302.38;5003147;28;20049;-75
2023/07/08 09:41:45;;;;;;;9.00;4.50;;;;;;;34.00;28.92;101301.75;5010760;28;20080;-78
2023/07/08 09:44:26;;;;;;;8.70;5.10;;;;;;;34.20;27.43;101295.94;5007137;28;20073;-77
2023/07/08 09:46:57;;;;;;;10.88;4.78;;;;;;;34.16;27.42;101297.66;5012557;28;20025;-76
2023/07/08 09:49:34;;;;;;;7.93;4.97;;;;;;;34.23;27.83;101299.94;5008958;28;20384;-76
2023/07/08 09:52:01;;;;;;;10.45;4.97;;;;;;;34.49;27.99;101306.31;5007163;28;20043;-76
2023/07/08 09:54:27;;;;;;;6.72;4.75;;;;;;;34.62;26.95;101298.47;5010767;28;20053;-76
2023/07/08 09:57:04;;;;;;;8.85;4.95;;;;;;;34.11;27.30;101300.44;5013415;28;20038;-78
2023/07/08 09:59:39;;;;;;;11.48;4.90;;;;;;;34.03;27.15;101301.16;5008607;28;20085;-75
2023/07/08 10:02:38;;;;;;;7.07;5.10;;;;;;;33.98;27.65;101293.97;5011793;28;20041;-78
2023/07/08 10:05:21;;;;;;;9.25;5.13;;;;;;;34.31;27.59;101289.22;5006457;28;20112;-76
2023/07/08 10:07:48;;;;;;;11.07;5.90;;;;;;;34.56;26.78;101294.31;5012949;28;20125;-77
2023/07/08 10:10:22;;;;;;;8.95;4.38;;;;;;;34.52;27.24;101294.13;4993393;28;20045;-76
2023/07/08 10:12:56;;;;;;;9.18;5.32;;;;;;;34.49;27.37;101284.78;5008486;28;20091;-77
2023/07/08 10:15:35;;;;;;;7.60;4.88;;;;;;;34.45;27.55;101281.13;5009965;28;20120;-77
2023/07/08 10:18:01;;;;;;;12.77;5.32;;;;;;;34.47;27.24;101286.19;5012221;28;20092;-75
2023/07/08 10:20:38;;;;;;;12.35;4.57;;;;;;;34.57;27.56;101280.56;5012967;28;20433;-77
2023/07/08 10:23:32;;;;;;;10.38;4.53;;;;;;;34.37;28.16;101275.66;5012975;28;20045;-76
2023/07/08 10:26:13;;;;;;;8.30;4.93;;;;;;;34.36;27.26;101279.44;4989148;28;20464;-77
2023/07/08 10:29:14;;;;;;;11.10;4.80;;;;;;;34.65;27.19;101279.03;5011031;28;20111;-76
2023/07/08 10:32:17;;;;;;;7.78;4.72;;;;;;;34.97;27.11;101271.78;5006202;28;20035;-76
2023/07/08 10:35:10;;;;;;;6.70;4.25;;;;;;;35.09;26.59;101274.66;4992156;28;20521;-76
2023/07/08 10:37:59;;;;;;;7.07;4.93;;;;;;;35.05;26.83;101265.63;5006621;28;20060;-78
2023/07/08 10:40:44;;;;;;;6.72;4.88;;;;;;;35.03;26.87;101265.91;5010527;28;20046;-77
2023/07/08 10:43:27;;;;;;;11.73;4.50;;;;;;;35.12;26.86;101263.28;5005754;28;20038;-78
2023/07/08 10:46:15;;;;;;;7.78;4.93;;;;;;;35.32;26.83;101264.66;5008582;28;20045;-76
2023/07/08 10:48:49;;;;;;;9.02;4.28;;;;;;;35.51;26.46;101272.47;5011711;28;20794;-77
2023/07/08 10:51:27;;;;;;;7.90;4.75;;;;;;;35.28;27.44;101264.47;4988577;28;20548;-76
2023/07/08 10:54:13;;;;;;;6.68;4.38;;;;;;;35.64;27.06;101266.13;5008256;28;20037;-76
2023/07/08 10:56:54;;;;;;;10.77;4.65;;;;;;;35.80;26.76;101254.91;5008924;28;20030;-76
2023/07/08 10:59:38;;;;;;;6.38;4.22;;;;;;;35.77;26.69;101259.06;5005990;28;20128;-77
2023/07/08 11:02:22;;;;;;;7.45;4.68;;;;;;;35.82;26.63;101258.09;5019977;28;20042;-74
2023/07/08 11:05:03;;;;;;;11.52;5.28;;;;;;;36.14;27.38;101261.44;5005964;28;20131;-75
2023/07/08 11:07:50;;;;;;;12.65;5.05;;;;;;;36.00;25.96;101257.00;5009695;28;20083;-75
2023/07/08 11:10:40;;;;;;;11.57;4.47;;;;;;;36.05;25.89;101259.53;5004418;28;20056;-76
2023/07/08 11:13:12;;;;;;;7.65;4.55;;;;;;;35.93;25.34;101258.56;5007570;28;20021;-76
2023/07/08 11:15:56;;;;;;;;;;;;;;;35.63;26.66;101261.06;5005534;28;20061;-76
2023/07/08 11:18:42;;;;;;;7.13;4.68;;;;;;;35.66;26.64;101255.03;5008622;28;19921;-77
2023/07/08 11:21:20;;;;;;;10.75;4.53;;;;;;;35.89;27.27;101250.31;5005854;28;20146;-75
2023/07/08 11:24:10;;;;;;;6.80;4.05;;;;;;;36.10;26.07;101239.69;5004721;28;20067;-76
2023/07/08 11:26:45;;;;;;;12.52;4.93;;;;;;;35.91;25.92;101248.09;5007591;28;20030;-78
2023/07/08 11:29:21;;;;;;;11.63;4.05;;;;;;;36.03;26.45;101252.84;5006261;28;20049;-76
2023/07/08 11:31:49;;;;;;;10.40;4.90;;;;;;;36.12;25.30;101248.25;5009132;28;20044;-74
2023/07/08 11:34:17;;;;;;;8.82;4.32;;;;;;;36.22;26.02;101242.56;4990885;28;20038;-76